createdAt,value
2022-11-05T00:00:39.163Z,10.41
2022-11-05T00:03:41.101Z,10.40
2022-11-05T00:06:43.017Z,10.30
2022-11-05T00:09:29.678Z,10.11
2022-11-05T00:12:33.110Z,9.99
2022-11-05T00:15:35.504Z,9.78
2022-11-05T00:18:21.606Z,9.50
2022-11-05T00:21:05.768Z,9.58
2022-11-05T00:24:07.846Z,10.16
2022-11-05T00:26:51.203Z,9.69
2022-11-05T00:29:34.995Z,9.27
2022-11-05T00:32:18.637Z,9.47
2022-11-05T00:35:02.025Z,9.14
2022-11-05T00:37:50.069Z,9.13
2022-11-05T00:40:34.033Z,9.16
2022-11-05T00:43:35.916Z,9.17
2022-11-05T00:46:19.272Z,9.28
2022-11-05T00:49:24.810Z,9.11
2022-11-05T00:52:26.679Z,9.18
2022-11-05T00:55:10.031Z,9.05
2022-11-05T00:57:53.754Z,9.12
2022-11-05T01:00:42.606Z,9.11
2022-11-05T01:03:36.689Z,9.38
2022-11-05T01:06:20.116Z,9.20
2022-11-05T01:09:03.613Z,9.21
2022-11-05T01:11:46.968Z,9.18
2022-11-05T01:14:30.556Z,9.17
2022-11-05T01:17:13.985Z,9.13
2022-11-05T01:19:57.467Z,9.27
2022-11-05T01:22:40.863Z,9.15
2022-11-05T01:25:24.648Z,9.14
2022-11-05T01:28:09.663Z,9.17
2022-11-05T01:30:57.325Z,9.21
2022-11-05T01:33:40.737Z,9.37
2022-11-05T01:36:24.126Z,9.10
2022-11-05T01:39:07.479Z,9.12
2022-11-05T01:41:50.847Z,9.16
2022-11-05T01:45:01.987Z,9.16
2022-11-05T01:48:11.672Z,9.23
2022-11-05T01:51:06.944Z,9.39
2022-11-05T01:54:06.549Z,9.39
2022-11-05T01:56:57.553Z,9.23
2022-11-05T01:59:52.380Z,9.18
2022-11-05T02:02:36.091Z,9.22
2022-11-05T02:05:19.777Z,9.14
2022-11-05T02:08:03.861Z,9.35
2022-11-05T02:10:48.588Z,9.23
2022-11-05T02:13:32.280Z,9.19
2022-11-05T02:16:31.545Z,9.29
2022-11-05T02:20:11.608Z,9.20
2022-11-05T02:23:34.793Z,9.72
2022-11-05T02:26:55.224Z,9.19
2022-11-05T02:30:05.322Z,9.49
2022-11-05T02:33:15.259Z,9.59
2022-11-05T02:36:32.588Z,10.07
2022-11-05T02:39:39.094Z,9.99
2022-11-05T02:42:56.722Z,9.88
2022-11-05T02:46:11.588Z,9.37
2022-11-05T02:49:05.999Z,9.34
2022-11-05T02:52:19.280Z,9.33
2022-11-05T02:55:30.822Z,9.13
2022-11-05T02:58:14.766Z,9.39
2022-11-05T03:00:59.253Z,9.47
2022-11-05T03:03:53.706Z,9.26
2022-11-05T03:07:04.552Z,9.17
2022-11-05T03:10:05.296Z,9.21
2022-11-05T03:13:33.534Z,9.40
2022-11-05T03:17:06.305Z,9.38
2022-11-05T03:20:37.536Z,9.02
2022-11-05T03:23:44.765Z,9.46
2022-11-05T03:26:44.531Z,9.78
2022-11-05T03:29:36.072Z,9.34
2022-11-05T03:32:22.582Z,9.54
2022-11-05T03:35:18.683Z,9.65
2022-11-05T03:38:13.482Z,9.43
2022-11-05T03:41:04.988Z,9.34
2022-11-05T03:43:57.906Z,9.46
2022-11-05T03:46:49.865Z,9.84
2022-11-05T03:50:15.206Z,9.92
2022-11-05T03:53:10.296Z,9.69
2022-11-05T03:56:08.059Z,10.07
2022-11-05T03:58:58.865Z,10.21
2022-11-05T04:01:43.148Z,9.87
2022-11-05T04:04:28.519Z,9.79
2022-11-05T04:07:31.728Z,9.73
2022-11-05T04:10:34.511Z,9.81
2022-11-05T04:13:26.886Z,9.67
2022-11-05T04:16:28.786Z,9.28
2022-11-05T04:19:12.255Z,9.05
2022-11-05T04:22:14.085Z,9.43
2022-11-05T04:24:57.537Z,9.15
2022-11-05T04:27:41.025Z,9.36
2022-11-05T04:30:24.412Z,9.40
2022-11-05T04:33:12.804Z,9.34
2022-11-05T04:35:56.538Z,9.19
2022-11-05T04:38:39.921Z,9.07
2022-11-05T04:41:23.343Z,8.83
2022-11-05T04:44:06.718Z,8.71
2022-11-05T04:46:50.130Z,8.62
2022-11-05T04:49:33.566Z,8.44
2022-11-05T04:52:17.980Z,8.51
2022-11-05T04:55:01.342Z,8.34
2022-11-05T04:57:49.410Z,8.20
2022-11-05T05:00:32.968Z,8.16
2022-11-05T05:03:16.583Z,8.19
2022-11-05T05:06:03.722Z,8.26
2022-11-05T05:08:49.043Z,8.41
2022-11-05T05:11:32.505Z,8.38
2022-11-05T05:14:16.005Z,8.28
2022-11-05T05:16:59.597Z,8.21
2022-11-05T05:20:01.921Z,8.39
2022-11-05T05:22:53.266Z,8.09
2022-11-05T05:25:36.851Z,8.33
2022-11-05T05:28:20.361Z,8.45
2022-11-05T05:31:03.986Z,8.43
2022-11-05T05:33:47.618Z,8.39
2022-11-05T05:36:31.899Z,8.76
2022-11-05T05:39:15.407Z,8.51
2022-11-05T05:41:58.927Z,8.66
2022-11-05T05:44:42.729Z,8.54
2022-11-05T05:47:26.408Z,8.44
2022-11-05T05:50:09.943Z,8.53
2022-11-05T05:52:54.028Z,8.56
2022-11-05T05:55:37.511Z,8.41
2022-11-05T05:58:21.074Z,8.39
2022-11-05T06:01:18.320Z,8.57
2022-11-05T06:04:02.629Z,8.72
2022-11-05T06:06:47.120Z,8.64
2022-11-05T06:09:30.636Z,8.66
2022-11-05T06:12:14.140Z,8.89
2022-11-05T06:14:57.949Z,8.24
2022-11-05T06:17:44.397Z,8.48
2022-11-05T06:20:27.966Z,8.53
2022-11-05T06:23:11.874Z,8.49
2022-11-05T06:26:01.513Z,8.79
2022-11-05T06:28:46.280Z,8.59
2022-11-05T06:38:05.533Z,8.58
2022-11-05T06:40:49.056Z,8.63
2022-11-05T06:43:32.585Z,8.90
2022-11-05T06:46:15.943Z,8.86
2022-11-05T06:49:05.640Z,8.68
2022-11-05T06:51:49.324Z,8.13
2022-11-05T06:54:32.957Z,8.35
2022-11-05T06:57:16.528Z,8.55
2022-11-05T07:00:02.406Z,8.58
2022-11-05T07:02:50.393Z,8.69
2022-11-05T07:05:38.730Z,8.75
2022-11-05T07:08:22.272Z,8.94
2022-11-05T07:11:06.569Z,8.99
2022-11-05T07:13:50.015Z,9.20
2022-11-05T07:16:33.507Z,9.47
2022-11-05T07:19:16.892Z,9.18
2022-11-05T07:22:00.287Z,9.27
2022-11-05T07:24:47.214Z,9.37
2022-11-05T07:27:30.627Z,8.80
2022-11-05T07:30:13.965Z,8.96
2022-11-05T07:32:57.683Z,8.67
2022-11-05T07:35:41.034Z,8.77
2022-11-05T07:38:25.045Z,8.85
2022-11-05T07:41:08.483Z,8.45
2022-11-05T07:43:51.868Z,8.73
2022-11-05T07:46:35.283Z,8.54
2022-11-05T07:49:18.914Z,8.47
2022-11-05T07:52:02.279Z,8.41
2022-11-05T07:54:45.655Z,8.50
2022-11-05T07:57:29.151Z,8.51
2022-11-05T08:00:22.616Z,8.41
2022-11-05T08:03:16.257Z,8.51
2022-11-05T08:06:00.141Z,8.51
2022-11-05T08:08:43.718Z,8.52
2022-11-05T08:11:27.171Z,8.76
2022-11-05T08:14:10.546Z,8.74
2022-11-05T08:16:53.907Z,8.64
2022-11-05T08:19:37.243Z,8.75
2022-11-05T08:22:21.078Z,9.05
2022-11-05T08:25:06.954Z,8.35
2022-11-05T08:28:00.183Z,8.85
2022-11-05T08:30:43.659Z,8.89
2022-11-05T08:33:28.028Z,8.63
2022-11-05T08:36:11.420Z,8.54
2022-11-05T08:38:54.962Z,8.59
2022-11-05T08:41:38.477Z,8.63
2022-11-05T08:44:22.209Z,8.77
2022-11-05T08:47:05.608Z,8.80
2022-11-05T08:49:49.241Z,8.82
2022-11-05T08:52:32.697Z,8.90
2022-11-05T08:55:19.061Z,8.91
2022-11-05T08:58:06.297Z,8.84
2022-11-05T09:00:50.268Z,8.73
2022-11-05T09:03:33.938Z,8.65
2022-11-05T09:06:17.631Z,8.89
2022-11-05T09:09:00.985Z,9.11
2022-11-05T09:12:10.558Z,8.76
2022-11-05T09:14:49.070Z,8.67
2022-11-05T09:17:32.541Z,8.72
2022-11-05T09:20:16.168Z,9.05
2022-11-05T09:23:00.142Z,9.02
2022-11-05T09:25:44.345Z,9.18
2022-11-05T09:28:28.404Z,9.33
2022-11-05T09:31:12.669Z,8.85
2022-11-05T09:33:56.099Z,9.29
2022-11-05T09:36:39.479Z,9.74
2022-11-05T09:39:23.156Z,9.37
2022-11-05T09:42:09.798Z,9.62
2022-11-05T09:45:01.968Z,9.24
2022-11-05T09:47:55.604Z,9.30
2022-11-05T09:50:46.287Z,9.49
2022-11-05T09:53:29.793Z,9.68
2022-11-05T09:56:33.906Z,9.79
2022-11-05T09:59:27.652Z,9.95
2022-11-05T10:02:25.898Z,10.04
2022-11-05T10:05:13.904Z,10.04
2022-11-05T10:08:18.250Z,9.94
2022-11-05T10:11:17.088Z,10.21
2022-11-05T10:14:15.200Z,10.99
2022-11-05T10:17:15.871Z,11.38
2022-11-05T10:20:38.197Z,11.08
2022-11-05T10:23:22.920Z,10.94
2022-11-05T10:26:14.249Z,11.74
2022-11-05T10:28:58.116Z,11.92
2022-11-05T10:31:43.512Z,11.38
2022-11-05T10:34:34.190Z,10.73
2022-11-05T10:37:20.447Z,11.32
2022-11-05T10:40:36.291Z,11.10
2022-11-05T10:43:40.911Z,11.26
2022-11-05T10:46:50.054Z,12.09
2022-11-05T10:49:59.573Z,11.46
2022-11-05T10:52:51.528Z,11.30
2022-11-05T10:55:41.267Z,11.38
2022-11-05T10:58:35.507Z,11.49
2022-11-05T11:01:19.366Z,11.17
2022-11-05T11:04:15.345Z,11.12
2022-11-05T11:07:00.380Z,11.91
2022-11-05T11:09:49.762Z,11.62
2022-11-05T11:12:43.066Z,11.71
2022-11-05T11:15:32.630Z,11.68
2022-11-05T11:18:40.026Z,12.47
2022-11-05T11:21:24.554Z,12.63
2022-11-05T11:24:23.221Z,12.46
2022-11-05T11:27:23.667Z,12.10
2022-11-05T11:30:07.684Z,12.31
2022-11-05T11:32:51.073Z,12.61
2022-11-05T11:35:38.797Z,11.68
2022-11-05T11:38:24.323Z,11.75
2022-11-05T11:41:27.949Z,11.66
2022-11-05T11:44:21.385Z,11.68
2022-11-05T11:47:14.367Z,12.09
2022-11-05T11:50:01.224Z,12.14
2022-11-05T11:52:45.081Z,12.43
2022-11-05T11:55:28.628Z,12.85
2022-11-05T11:58:12.046Z,12.66
2022-11-05T12:01:09.402Z,12.88
2022-11-05T12:04:24.231Z,12.57
2022-11-05T12:07:24.650Z,12.05
2022-11-05T12:10:30.079Z,11.89
2022-11-05T12:13:19.363Z,12.19
2022-11-05T12:16:17.506Z,12.48
2022-11-05T12:19:20.021Z,12.46
2022-11-05T12:22:25.110Z,12.80
2022-11-05T12:25:55.581Z,12.35
2022-11-05T12:32:22.063Z,12.67
2022-11-05T12:35:31.547Z,12.45
2022-11-05T12:38:33.063Z,12.70
2022-11-05T12:42:02.907Z,12.33
2022-11-05T12:44:52.242Z,12.38
2022-11-05T12:47:52.833Z,12.24
2022-11-05T12:50:51.124Z,12.61
2022-11-05T12:54:17.460Z,12.66
2022-11-05T12:57:04.187Z,12.32
2022-11-05T13:00:21.105Z,12.43
2022-11-05T13:03:40.703Z,13.04
2022-11-05T13:06:41.926Z,12.84
2022-11-05T13:09:55.432Z,12.78
2022-11-05T13:12:42.583Z,12.63
2022-11-05T13:15:37.358Z,12.87
2022-11-05T13:18:52.292Z,13.09
2022-11-05T13:21:39.425Z,13.30
2022-11-05T13:24:59.171Z,14.60
2022-11-05T13:28:07.260Z,13.28
2022-11-05T13:30:57.926Z,13.38
2022-11-05T13:33:49.735Z,13.20
2022-11-05T13:37:07.769Z,12.81
2022-11-05T13:39:59.850Z,12.74
2022-11-05T13:43:13.694Z,12.82
2022-11-05T13:46:06.427Z,13.17
2022-11-05T13:49:24.301Z,12.13
2022-11-05T13:52:47.986Z,12.07
2022-11-05T13:56:12.621Z,12.02
2022-11-05T13:59:38.004Z,12.15
2022-11-05T14:02:28.676Z,11.78
2022-11-05T14:05:32.456Z,11.69
2022-11-05T14:08:27.667Z,11.75
2022-11-05T14:11:36.321Z,12.08
2022-11-05T14:14:26.155Z,12.16
2022-11-05T14:17:09.378Z,11.94
2022-11-05T14:20:04.841Z,11.96
2022-11-05T14:22:48.269Z,11.56
2022-11-05T14:25:34.493Z,12.03
2022-11-05T14:28:36.387Z,11.76
2022-11-05T14:31:19.846Z,11.63
2022-11-05T14:34:21.095Z,11.55
2022-11-05T14:37:10.494Z,11.56
2022-11-05T14:39:56.094Z,11.83
2022-11-05T14:42:39.563Z,11.58
2022-11-05T14:45:30.304Z,11.32
2022-11-05T14:48:37.566Z,11.32
2022-11-05T14:51:45.852Z,11.54
2022-11-05T14:54:52.329Z,11.40
2022-11-05T14:57:44.578Z,11.74
2022-11-05T15:00:36.626Z,11.77
2022-11-05T15:04:00.652Z,11.76
2022-11-05T15:07:03.030Z,11.81
2022-11-05T15:10:05.812Z,11.80
2022-11-05T15:13:01.978Z,12.12
2022-11-05T15:15:50.825Z,11.90
2022-11-05T15:18:45.690Z,11.83
2022-11-05T15:21:36.326Z,11.96
2022-11-05T15:24:21.701Z,11.68
2022-11-05T15:27:25.908Z,11.83
2022-11-05T15:30:23.553Z,11.62
2022-11-05T15:33:25.576Z,11.20
2022-11-05T15:36:30.963Z,11.46
2022-11-05T15:39:39.700Z,11.01
2022-11-05T15:42:26.121Z,11.27
2022-11-05T15:45:20.832Z,11.12
2022-11-05T15:48:19.900Z,10.70
2022-11-05T15:51:03.872Z,10.77
2022-11-05T15:56:58.907Z,10.82
2022-11-05T15:59:47.199Z,10.71
2022-11-05T16:02:38.162Z,10.79
2022-11-05T16:05:25.313Z,10.63
2022-11-05T16:08:20.461Z,10.58
2022-11-05T16:11:04.119Z,10.48
2022-11-05T16:13:47.734Z,10.58
2022-11-05T16:16:34.203Z,10.06
2022-11-05T16:19:41.033Z,10.26
2022-11-05T16:22:24.855Z,9.88
2022-11-05T16:25:41.734Z,9.79
2022-11-05T16:28:29.440Z,10.14
2022-11-05T16:31:12.872Z,9.95
2022-11-05T16:33:58.035Z,10.10
2022-11-05T16:36:41.485Z,10.10
2022-11-05T16:39:25.753Z,9.41
2022-11-05T16:42:39.052Z,9.95
2022-11-05T16:45:25.314Z,9.94
2022-11-05T16:48:13.343Z,9.77
2022-11-05T16:50:57.319Z,9.65
2022-11-05T16:53:41.284Z,9.67
2022-11-05T16:56:24.701Z,9.61
2022-11-05T16:59:13.368Z,9.59
2022-11-05T17:01:57.934Z,9.41
2022-11-05T17:04:41.375Z,9.33
2022-11-05T17:07:24.800Z,9.49
2022-11-05T17:10:08.167Z,9.45
2022-11-05T17:12:52.206Z,9.41
2022-11-05T17:15:35.863Z,9.27
2022-11-05T17:18:20.881Z,9.25
2022-11-05T17:21:04.980Z,9.33
2022-11-05T17:23:48.403Z,9.26
2022-11-05T17:26:31.772Z,9.34
2022-11-05T17:29:15.621Z,9.37
2022-11-05T17:31:59.049Z,9.27
2022-11-05T17:34:42.538Z,9.24
2022-11-05T17:37:25.919Z,8.82
2022-11-05T17:40:16.950Z,8.79
2022-11-05T17:43:00.325Z,8.81
2022-11-05T17:45:51.859Z,8.79
2022-11-05T17:48:36.738Z,8.81
2022-11-05T17:51:20.997Z,8.61
2022-11-05T17:54:04.405Z,8.79
2022-11-05T17:56:47.815Z,8.69
2022-11-05T17:59:31.601Z,8.42
2022-11-05T18:02:15.094Z,8.34
2022-11-05T18:04:58.644Z,8.56
2022-11-05T18:07:42.808Z,8.57
2022-11-05T18:10:26.292Z,8.86
2022-11-05T18:13:10.283Z,8.86
2022-11-05T18:15:55.080Z,8.55
2022-11-05T18:18:38.498Z,8.67
2022-11-05T18:21:21.895Z,8.59
2022-11-05T18:24:06.477Z,8.34
2022-11-05T18:26:50.586Z,8.23
2022-11-05T18:29:33.937Z,8.52
2022-11-05T18:32:17.623Z,8.38
2022-11-05T18:35:01.210Z,8.70
2022-11-05T18:37:44.780Z,8.64
2022-11-05T18:40:28.138Z,8.57
2022-11-05T18:43:11.993Z,8.14
2022-11-05T18:45:58.528Z,8.00
2022-11-05T18:48:41.926Z,8.14
2022-11-05T18:51:26.920Z,7.89
2022-11-05T18:54:10.377Z,8.22
2022-11-05T18:56:53.925Z,7.92
2022-11-05T18:59:39.377Z,7.92
2022-11-05T19:02:23.344Z,8.07
2022-11-05T19:05:27.979Z,7.99
2022-11-05T19:08:14.275Z,7.79
2022-11-05T19:10:58.704Z,7.88
2022-11-05T19:13:43.270Z,7.74
2022-11-05T19:16:28.968Z,7.61
2022-11-05T19:19:12.366Z,7.87
2022-11-05T19:21:56.421Z,7.90
2022-11-05T19:24:39.957Z,7.97
2022-11-05T19:27:23.444Z,7.53
2022-11-05T19:30:07.302Z,7.52
2022-11-05T19:32:50.900Z,7.80
2022-11-05T19:35:39.960Z,7.62
2022-11-05T19:38:26.249Z,7.72
2022-11-05T19:41:18.300Z,7.46
2022-11-05T19:44:02.034Z,7.43
2022-11-05T19:46:45.873Z,7.47
2022-11-05T19:49:29.362Z,7.38
2022-11-05T19:52:13.152Z,7.34
2022-11-05T19:54:56.577Z,7.16
2022-11-05T19:57:39.951Z,7.24
2022-11-05T20:00:23.305Z,7.18
2022-11-05T20:03:06.782Z,7.19
2022-11-05T20:05:50.228Z,7.02
2022-11-05T20:08:43.483Z,7.07
2022-11-05T20:11:37.803Z,7.04
2022-11-05T20:14:21.217Z,6.95
2022-11-05T20:17:04.581Z,7.12
2022-11-05T20:19:48.226Z,6.90
2022-11-05T20:22:31.620Z,6.95
2022-11-05T20:25:15.092Z,6.89
2022-11-05T20:27:58.491Z,6.69
2022-11-05T20:30:41.866Z,6.74
2022-11-05T20:33:29.421Z,6.63
2022-11-05T20:36:18.680Z,6.68
2022-11-05T20:39:02.976Z,6.73
2022-11-05T20:41:46.390Z,6.72
2022-11-05T20:44:29.839Z,6.58
2022-11-05T20:47:13.305Z,6.86
2022-11-05T20:49:58.471Z,6.82
2022-11-05T20:52:41.882Z,6.62
2022-11-05T20:55:25.268Z,6.74
2022-11-05T20:58:09.312Z,6.79
2022-11-05T21:00:55.929Z,6.67
2022-11-05T21:03:39.902Z,6.36
2022-11-05T21:06:23.738Z,6.51
2022-11-05T21:09:07.254Z,6.30
2022-11-05T21:12:09.369Z,6.48
2022-11-05T21:14:53.460Z,6.50
2022-11-05T21:17:37.611Z,6.52
2022-11-05T21:20:21.500Z,6.34
2022-11-05T21:23:04.882Z,6.32
2022-11-05T21:25:48.463Z,6.24
2022-11-05T21:28:32.421Z,6.41
2022-11-05T21:31:16.063Z,6.39
2022-11-05T21:33:59.455Z,6.48
2022-11-05T21:36:43.732Z,6.78
2022-11-05T21:39:27.857Z,6.28
2022-11-05T21:42:11.253Z,6.34
2022-11-05T21:44:59.990Z,6.24
2022-11-05T21:47:44.191Z,6.08
2022-11-05T21:50:46.735Z,6.11
2022-11-05T21:53:48.746Z,6.21
2022-11-05T21:56:51.654Z,6.40
2022-11-05T21:59:55.233Z,6.43
2022-11-05T22:02:39.080Z,6.40
2022-11-05T22:05:22.624Z,6.29
2022-11-05T22:08:06.028Z,6.24
2022-11-05T22:10:49.417Z,6.19
2022-11-05T22:13:32.815Z,6.17
2022-11-05T22:16:16.214Z,6.39
2022-11-05T22:19:00.001Z,6.17
2022-11-05T22:21:43.887Z,6.29
2022-11-05T22:24:28.269Z,6.09
2022-11-05T22:27:15.936Z,6.17
2022-11-05T22:29:59.300Z,6.11
2022-11-05T22:32:42.795Z,5.98
2022-11-05T22:35:26.396Z,5.92
2022-11-05T22:38:10.230Z,6.03
2022-11-05T22:40:53.961Z,6.19
2022-11-05T22:43:38.077Z,6.19
2022-11-05T22:46:25.700Z,6.24
2022-11-05T22:49:09.765Z,6.16
2022-11-05T22:51:53.323Z,5.93
2022-11-05T22:54:39.465Z,5.99
2022-11-05T22:57:23.032Z,5.97
2022-11-05T23:00:17.270Z,5.86
2022-11-05T23:03:01.350Z,5.90
2022-11-05T23:05:44.869Z,5.93
2022-11-05T23:08:47.068Z,6.10
2022-11-05T23:11:38.082Z,5.96
2022-11-05T23:14:21.462Z,5.71
2022-11-05T23:17:23.293Z,5.71
2022-11-05T23:20:31.584Z,5.67
2022-11-05T23:23:36.266Z,5.72
2022-11-05T23:26:38.223Z,5.88
2022-11-05T23:29:26.143Z,5.89
2022-11-05T23:32:24.589Z,5.93
2022-11-05T23:35:08.778Z,5.79
2022-11-05T23:38:10.998Z,5.86
2022-11-05T23:41:12.965Z,5.98
2022-11-05T23:44:25.513Z,6.05
2022-11-05T23:47:27.415Z,5.96
2022-11-05T23:50:10.843Z,5.96
2022-11-05T23:52:55.650Z,5.96
2022-11-05T23:55:39.647Z,5.91
2022-11-05T23:58:23.018Z,6.01
